createdAt,value
2022-10-13T00:01:23.779Z,4.90
2022-10-13T00:03:52.575Z,5.00
2022-10-13T00:06:27.123Z,5.45
2022-10-13T00:08:56.697Z,5.07
2022-10-13T00:11:27.421Z,4.68
2022-10-13T00:14:01.711Z,5.18
2022-10-13T00:16:33.129Z,4.47
2022-10-13T00:19:01.425Z,5.07
2022-10-13T00:21:30.053Z,4.80
2022-10-13T00:23:59.028Z,4.72
2022-10-13T00:26:27.308Z,4.32
2022-10-13T00:28:56.624Z,4.20
2022-10-13T00:31:31.766Z,4.30
2022-10-13T00:34:01.424Z,4.53
2022-10-13T00:36:33.055Z,4.60
2022-10-13T00:39:01.366Z,4.55
2022-10-13T00:41:31.676Z,4.60
2022-10-13T00:44:04.099Z,4.45
2022-10-13T00:46:37.747Z,4.88
2022-10-13T00:49:12.090Z,4.13
2022-10-13T00:51:46.956Z,4.63
2022-10-13T00:54:20.369Z,4.38
2022-10-13T00:56:48.680Z,4.68
2022-10-13T00:59:23.639Z,4.90
2022-10-13T01:01:54.151Z,3.78
2022-10-13T01:04:25.659Z,4.05
2022-10-13T01:06:54.994Z,3.88
2022-10-13T01:09:23.532Z,3.60
2022-10-13T01:12:24.454Z,3.25
2022-10-13T01:15:10.739Z,3.00
2022-10-13T01:18:10.637Z,2.72
2022-10-13T01:20:42.951Z,2.83
2022-10-13T01:23:48.699Z,2.88
2022-10-13T01:26:39.033Z,2.92
2022-10-13T01:29:52.034Z,3.28
2022-10-13T01:32:46.700Z,3.20
2022-10-13T01:35:48.064Z,3.00
2022-10-13T01:38:30.666Z,3.00
2022-10-13T01:40:58.386Z,2.78
2022-10-13T01:43:37.658Z,3.00
2022-10-13T01:46:38.156Z,3.00
2022-10-13T01:49:11.409Z,3.20
2022-10-13T01:51:40.916Z,3.28
2022-10-13T01:54:09.268Z,2.90
2022-10-13T01:56:37.284Z,2.90
2022-10-13T01:59:13.624Z,3.40
2022-10-13T02:01:52.517Z,3.22
2022-10-13T02:04:40.488Z,3.15
2022-10-13T02:07:24.220Z,3.78
2022-10-13T02:09:55.562Z,3.42
2022-10-13T02:12:33.177Z,3.33
2022-10-13T02:15:03.495Z,3.42
2022-10-13T02:17:35.365Z,3.70
2022-10-13T02:20:08.933Z,3.20
2022-10-13T02:22:47.620Z,3.47
2022-10-13T02:25:15.877Z,2.90
2022-10-13T02:27:44.132Z,3.17
2022-10-13T02:30:21.628Z,3.10
2022-10-13T02:32:52.006Z,3.50
2022-10-13T02:35:20.635Z,3.27
2022-10-13T02:37:48.831Z,3.20
2022-10-13T02:40:17.365Z,3.80
2022-10-13T02:42:45.123Z,3.60
2022-10-13T02:45:13.684Z,3.17
2022-10-13T02:47:42.005Z,3.22
2022-10-13T02:50:10.573Z,3.38
2022-10-13T02:52:38.791Z,3.60
2022-10-13T02:55:07.845Z,3.40
2022-10-13T02:57:36.085Z,3.70
2022-10-13T03:00:05.790Z,3.30
2022-10-13T03:02:34.517Z,3.57
2022-10-13T03:05:05.234Z,3.33
2022-10-13T03:07:33.498Z,3.22
2022-10-13T03:10:02.271Z,3.25
2022-10-13T03:12:30.003Z,4.38
2022-10-13T03:14:58.214Z,3.83
2022-10-13T03:17:27.175Z,3.30
2022-10-13T03:19:55.411Z,3.67
2022-10-13T03:22:23.475Z,3.33
2022-10-13T03:24:53.438Z,3.50
2022-10-13T03:27:21.241Z,3.80
2022-10-13T03:29:49.833Z,3.42
2022-10-13T03:32:19.192Z,3.72
2022-10-13T03:34:47.650Z,3.63
2022-10-13T03:37:15.366Z,3.90
2022-10-13T03:39:44.430Z,3.67
2022-10-13T03:42:13.823Z,3.67
2022-10-13T03:44:42.003Z,3.60
2022-10-13T03:47:12.102Z,3.97
2022-10-13T03:49:40.365Z,4.03
2022-10-13T03:52:08.576Z,4.00
2022-10-13T03:54:37.014Z,4.07
2022-10-13T03:57:09.969Z,3.90
2022-10-13T03:59:42.707Z,4.28
2022-10-13T04:02:10.576Z,4.15
2022-10-13T04:04:39.354Z,4.20
2022-10-13T04:07:07.999Z,4.30
2022-10-13T04:09:38.353Z,4.03
2022-10-13T04:12:06.667Z,4.95
2022-10-13T04:14:34.509Z,4.45
2022-10-13T04:17:09.164Z,4.25
2022-10-13T04:19:36.910Z,4.55
2022-10-13T04:22:06.655Z,4.38
2022-10-13T04:24:35.948Z,4.40
2022-10-13T04:27:03.694Z,4.63
2022-10-13T04:29:31.761Z,4.40
2022-10-13T04:32:00.480Z,4.30
2022-10-13T04:34:28.693Z,4.70
2022-10-13T04:36:57.602Z,4.30
2022-10-13T04:39:26.020Z,4.10
2022-10-13T04:41:54.249Z,4.57
2022-10-13T04:44:22.879Z,4.25
2022-10-13T04:46:51.129Z,4.68
2022-10-13T04:49:18.808Z,4.65
2022-10-13T04:51:46.769Z,5.50
2022-10-13T04:54:17.095Z,5.40
2022-10-13T04:56:46.350Z,5.03
2022-10-13T04:59:14.531Z,5.20
2022-10-13T05:01:42.270Z,4.95
2022-10-13T05:04:16.662Z,5.35
2022-10-13T05:07:12.462Z,5.85
2022-10-13T05:09:33.433Z,5.78
2022-10-13T05:12:01.696Z,5.82
2022-10-13T05:14:31.067Z,5.97
2022-10-13T05:17:02.312Z,5.95
2022-10-13T05:19:30.503Z,6.30
2022-10-13T05:22:00.821Z,6.73
2022-10-13T05:24:36.743Z,6.40
2022-10-13T05:27:07.462Z,6.22
2022-10-13T05:29:37.313Z,6.13
2022-10-13T05:32:06.729Z,5.88
2022-10-13T05:34:35.539Z,6.18
2022-10-13T05:37:06.663Z,6.05
2022-10-13T05:39:35.054Z,5.75
2022-10-13T05:42:03.329Z,5.93
2022-10-13T05:47:03.660Z,5.50
2022-10-13T05:49:36.499Z,5.00
2022-10-13T05:52:08.909Z,5.35
2022-10-13T05:54:46.722Z,4.80
2022-10-13T05:57:18.645Z,4.97
2022-10-13T05:59:52.423Z,5.32
2022-10-13T06:02:24.178Z,5.80
2022-10-13T06:04:55.929Z,5.28
2022-10-13T06:07:24.770Z,5.32
2022-10-13T06:09:52.926Z,5.70
2022-10-13T06:12:21.519Z,5.57
2022-10-13T06:15:10.694Z,5.22
2022-10-13T06:17:40.463Z,4.95
2022-10-13T06:20:09.779Z,5.50
2022-10-13T06:22:39.085Z,5.00
2022-10-13T06:25:07.994Z,5.28
2022-10-13T06:27:35.943Z,5.68
2022-10-13T06:30:04.439Z,5.15
2022-10-13T06:32:32.633Z,4.85
2022-10-13T06:35:00.966Z,5.90
2022-10-13T06:37:28.717Z,6.10
2022-10-13T06:39:57.535Z,5.95
2022-10-13T06:42:25.773Z,5.70
2022-10-13T06:45:10.291Z,6.15
2022-10-13T06:47:43.531Z,5.80
2022-10-13T06:50:12.434Z,6.00
2022-10-13T06:52:40.332Z,6.25
2022-10-13T06:55:09.036Z,5.60
2022-10-13T06:57:38.254Z,6.00
2022-10-13T07:00:08.573Z,5.80
2022-10-13T07:02:37.607Z,6.20
2022-10-13T07:05:06.385Z,6.63
2022-10-13T07:07:34.214Z,6.53
2022-10-13T07:10:02.113Z,6.60
2022-10-13T07:12:29.912Z,5.95
2022-10-13T07:14:58.422Z,5.70
2022-10-13T07:17:26.871Z,6.20
2022-10-13T07:19:57.886Z,6.22
2022-10-13T07:22:27.634Z,6.40
2022-10-13T07:24:55.380Z,6.03
2022-10-13T07:27:24.349Z,6.38
2022-10-13T07:29:55.778Z,6.60
2022-10-13T07:32:24.129Z,6.63
2022-10-13T07:34:55.378Z,6.40
2022-10-13T07:37:23.885Z,6.68
2022-10-13T07:39:51.926Z,6.95
2022-10-13T07:42:20.435Z,6.75
2022-10-13T07:44:49.150Z,7.35
2022-10-13T07:47:20.018Z,7.70
2022-10-13T07:49:48.094Z,6.63
2022-10-13T07:52:16.981Z,7.43
2022-10-13T07:54:45.545Z,6.55
2022-10-13T07:57:13.880Z,8.18
2022-10-13T07:59:41.982Z,6.80
2022-10-13T08:02:14.091Z,6.88
2022-10-13T08:04:45.724Z,7.22
2022-10-13T08:07:16.458Z,6.95
2022-10-13T08:09:44.776Z,7.60
2022-10-13T08:12:13.045Z,7.00
2022-10-13T08:14:42.090Z,8.05
2022-10-13T08:17:10.545Z,7.57
2022-10-13T08:19:40.848Z,8.07
2022-10-13T08:22:11.231Z,7.53
2022-10-13T08:24:41.084Z,7.47
2022-10-13T08:27:13.216Z,6.50
2022-10-13T08:29:43.701Z,7.22
2022-10-13T08:32:11.564Z,6.57
2022-10-13T08:34:40.058Z,6.40
2022-10-13T08:37:19.556Z,6.60
2022-10-13T08:39:48.090Z,7.25
2022-10-13T08:42:19.137Z,6.53
2022-10-13T08:45:39.888Z,6.20
2022-10-13T08:47:49.085Z,5.72
2022-10-13T08:50:21.561Z,5.72
2022-10-13T08:53:03.020Z,6.80
2022-10-13T08:55:42.180Z,5.97
2022-10-13T08:58:29.621Z,5.30
2022-10-13T09:01:34.429Z,5.30
2022-10-13T09:04:26.596Z,5.43
2022-10-13T09:07:23.534Z,5.53
2022-10-13T09:09:53.482Z,4.97
2022-10-13T09:12:25.013Z,5.63
2022-10-13T09:15:12.706Z,5.18
2022-10-13T09:17:41.911Z,5.15
2022-10-13T09:20:22.775Z,4.40
2022-10-13T09:23:03.407Z,4.22
2022-10-13T09:25:51.431Z,4.18
2022-10-13T09:28:32.979Z,4.80
2022-10-13T09:31:17.231Z,3.53
2022-10-13T09:33:46.668Z,3.92
2022-10-13T09:36:16.726Z,4.25
2022-10-13T09:39:14.892Z,4.13
2022-10-13T09:41:45.594Z,4.40
2022-10-13T09:44:17.856Z,3.95
2022-10-13T09:46:57.865Z,4.10
2022-10-13T09:49:30.330Z,4.50
2022-10-13T09:52:06.255Z,4.07
2022-10-13T09:54:45.441Z,3.58
2022-10-13T09:57:39.615Z,3.03
2022-10-13T10:00:17.638Z,2.97
2022-10-13T10:02:57.852Z,3.70
2022-10-13T10:05:48.361Z,3.40
2022-10-13T10:09:02.232Z,3.22
2022-10-13T10:11:35.473Z,3.38
2022-10-13T10:14:39.262Z,3.15
2022-10-13T10:17:28.280Z,3.38
2022-10-13T10:20:43.104Z,3.15
2022-10-13T10:23:17.849Z,3.10
2022-10-13T10:25:59.639Z,3.25
2022-10-13T10:28:54.445Z,3.00
2022-10-13T10:31:37.762Z,3.47
2022-10-13T10:34:31.044Z,2.90
2022-10-13T10:37:21.375Z,3.00
2022-10-13T10:40:14.889Z,3.10
2022-10-13T10:42:53.434Z,3.10
2022-10-13T10:45:39.527Z,3.30
2022-10-13T10:48:34.843Z,3.40
2022-10-13T10:51:05.961Z,3.20
2022-10-13T10:56:18.484Z,3.75
2022-10-13T10:58:59.501Z,3.33
2022-10-13T11:01:33.931Z,3.80
2022-10-13T11:04:35.718Z,3.17
2022-10-13T11:07:04.746Z,3.42
2022-10-13T11:09:41.948Z,3.65
2022-10-13T11:12:19.954Z,5.63
2022-10-13T11:14:54.596Z,8.73
2022-10-13T11:17:31.599Z,8.75
2022-10-13T11:20:22.661Z,8.80
2022-10-13T11:22:59.848Z,8.32
2022-10-13T11:25:45.261Z,7.65
2022-10-13T11:28:21.727Z,7.75
2022-10-13T11:30:55.476Z,8.07
2022-10-13T11:33:39.216Z,7.95
2022-10-13T11:36:31.228Z,8.05
2022-10-13T11:39:27.011Z,8.13
2022-10-13T11:42:04.614Z,7.88
2022-10-13T11:44:37.421Z,7.75
2022-10-13T11:47:17.626Z,7.15
2022-10-13T11:50:16.015Z,6.90
2022-10-13T11:52:49.564Z,7.85
2022-10-13T11:55:45.658Z,7.10
2022-10-13T11:58:26.222Z,7.10
2022-10-13T12:01:06.563Z,6.80
2022-10-13T12:03:37.253Z,7.13
2022-10-13T12:06:21.065Z,6.90
2022-10-13T12:08:52.115Z,7.10
2022-10-13T12:11:37.483Z,6.72
2022-10-13T12:14:09.120Z,7.75
2022-10-13T12:16:37.524Z,6.43
2022-10-13T12:19:25.149Z,6.35
2022-10-13T12:21:56.304Z,5.55
2022-10-13T12:26:55.350Z,4.90
2022-10-13T12:29:33.412Z,5.65
2022-10-13T12:32:19.306Z,6.20
2022-10-13T12:34:47.149Z,5.28
2022-10-13T12:37:36.872Z,4.45
2022-10-13T12:40:05.484Z,4.40
2022-10-13T12:42:37.896Z,3.95
2022-10-13T12:45:06.962Z,4.38
2022-10-13T12:47:36.964Z,3.70
2022-10-13T12:50:28.152Z,3.28
2022-10-13T12:53:04.597Z,3.20
2022-10-13T12:55:33.716Z,3.47
2022-10-13T12:58:04.778Z,2.97
2022-10-13T13:00:33.052Z,3.00
2022-10-13T13:03:03.488Z,3.33
2022-10-13T13:05:40.443Z,3.47
2022-10-13T13:08:29.984Z,3.25
2022-10-13T13:11:00.311Z,3.40
2022-10-13T13:13:29.672Z,3.45
2022-10-13T13:18:32.136Z,3.08
2022-10-13T13:21:01.973Z,2.60
2022-10-13T13:23:34.731Z,2.67
2022-10-13T13:26:10.823Z,3.25
2022-10-13T13:28:48.771Z,3.03
2022-10-13T13:31:19.530Z,3.10
2022-10-13T13:33:48.707Z,4.57
2022-10-13T13:36:22.369Z,3.22
2022-10-13T13:38:54.064Z,3.25
2022-10-13T13:41:22.712Z,2.90
2022-10-13T13:43:51.213Z,3.30
2022-10-13T13:46:27.654Z,3.15
2022-10-13T13:48:56.655Z,3.13
2022-10-13T13:51:25.643Z,2.72
2022-10-13T13:53:53.917Z,2.60
2022-10-13T13:56:22.131Z,2.78
2022-10-13T13:58:50.607Z,2.45
2022-10-13T14:01:19.164Z,2.72
2022-10-13T14:03:47.059Z,3.60
2022-10-13T14:06:18.947Z,2.80
2022-10-13T14:08:46.950Z,2.50
2022-10-13T14:11:15.139Z,2.70
2022-10-13T14:13:45.461Z,3.13
2022-10-13T14:16:17.844Z,2.83
2022-10-13T14:18:46.091Z,2.75
2022-10-13T14:21:16.855Z,2.60
2022-10-13T14:23:47.086Z,2.75
2022-10-13T14:26:16.385Z,2.97
2022-10-13T14:28:45.434Z,3.13
2022-10-13T14:31:13.470Z,3.30
2022-10-13T14:33:43.902Z,2.90
2022-10-13T14:36:11.744Z,3.03
2022-10-13T14:38:39.711Z,3.42
2022-10-13T14:41:09.304Z,3.33
2022-10-13T14:43:39.684Z,3.80
2022-10-13T14:46:07.824Z,4.88
2022-10-13T14:48:39.626Z,3.28
2022-10-13T14:51:10.686Z,3.72
2022-10-13T14:53:41.871Z,3.78
2022-10-13T14:56:26.759Z,3.80
2022-10-13T14:58:57.848Z,3.60
2022-10-13T15:01:31.097Z,3.65
2022-10-13T15:03:59.450Z,3.30
2022-10-13T15:06:30.012Z,3.33
2022-10-13T15:08:58.481Z,3.22
2022-10-13T15:11:27.572Z,3.50
2022-10-13T15:13:56.361Z,3.10
2022-10-13T15:16:27.920Z,3.00
2022-10-13T15:18:56.733Z,2.97
2022-10-13T15:21:26.162Z,2.70
2022-10-13T15:23:55.433Z,3.28
2022-10-13T15:26:23.443Z,2.92
2022-10-13T15:28:54.797Z,2.97
2022-10-13T15:31:24.214Z,3.00
2022-10-13T15:33:53.702Z,3.58
2022-10-13T15:36:23.517Z,3.35
2022-10-13T15:38:55.327Z,2.95
2022-10-13T15:43:54.449Z,3.15
2022-10-13T15:46:24.318Z,2.20
2022-10-13T15:48:54.208Z,2.50
2022-10-13T15:51:24.311Z,2.70
2022-10-13T15:53:52.841Z,2.22
2022-10-13T15:56:21.308Z,2.80
2022-10-13T15:58:49.701Z,2.53
2022-10-13T16:01:17.919Z,2.58
2022-10-13T16:03:46.926Z,2.70
2022-10-13T16:06:14.980Z,2.60
2022-10-13T16:08:45.795Z,2.58
2022-10-13T16:11:16.198Z,2.67
2022-10-13T16:13:48.976Z,2.75
2022-10-13T16:16:17.302Z,2.55
2022-10-13T16:18:45.823Z,2.97
2022-10-13T16:21:20.343Z,2.78
2022-10-13T16:23:48.756Z,3.00
2022-10-13T16:28:47.395Z,6.43
2022-10-13T16:31:17.029Z,3.90
2022-10-13T16:33:47.302Z,3.25
2022-10-13T16:36:18.245Z,2.90
2022-10-13T16:38:47.664Z,3.50
2022-10-13T16:41:19.755Z,3.30
2022-10-13T16:43:48.653Z,3.60
2022-10-13T16:46:19.070Z,3.47
2022-10-13T16:48:48.757Z,3.55
2022-10-13T16:51:20.134Z,3.55
2022-10-13T16:53:53.893Z,3.50
2022-10-13T16:56:24.330Z,3.95
2022-10-13T16:59:00.882Z,3.40
2022-10-13T17:01:31.186Z,3.53
2022-10-13T17:04:02.442Z,3.45
2022-10-13T17:06:30.436Z,4.47
2022-10-13T17:08:59.918Z,3.70
2022-10-13T17:11:30.139Z,3.83
2022-10-13T17:14:00.576Z,3.77
2022-10-13T17:16:34.429Z,3.60
2022-10-13T17:19:03.702Z,3.30
2022-10-13T17:21:34.521Z,3.63
2022-10-13T17:24:02.705Z,3.92
2022-10-13T17:26:30.683Z,3.92
2022-10-13T17:28:58.495Z,3.78
2022-10-13T17:31:26.757Z,4.18
2022-10-13T17:33:54.942Z,4.05
2022-10-13T17:36:28.864Z,3.67
2022-10-13T17:41:09.589Z,4.32
2022-10-13T17:43:41.829Z,4.47
2022-10-13T17:46:35.198Z,4.32
2022-10-13T17:49:00.834Z,4.40
2022-10-13T17:51:29.264Z,4.72
2022-10-13T17:53:59.643Z,4.82
2022-10-13T17:56:28.671Z,4.90
2022-10-13T17:58:57.381Z,5.18
2022-10-13T18:01:27.837Z,4.85
2022-10-13T18:03:58.070Z,4.63
2022-10-13T18:06:37.682Z,4.90
2022-10-13T18:09:08.736Z,5.15
2022-10-13T18:11:38.057Z,5.35
2022-10-13T18:14:06.692Z,5.70
2022-10-13T18:16:36.551Z,5.78
2022-10-13T18:19:05.376Z,5.60
2022-10-13T18:21:34.137Z,6.28
2022-10-13T18:24:02.768Z,6.28
2022-10-13T18:26:36.530Z,6.47
2022-10-13T18:29:06.943Z,6.75
2022-10-13T18:31:38.637Z,7.63
2022-10-13T18:34:09.075Z,7.30
2022-10-13T18:36:48.057Z,6.10
2022-10-13T18:39:22.590Z,6.97
2022-10-13T18:41:51.916Z,6.18
2022-10-13T18:44:21.240Z,6.72
2022-10-13T18:46:50.675Z,5.70
2022-10-13T18:49:20.645Z,6.53
2022-10-13T18:51:51.284Z,6.03
2022-10-13T18:54:19.677Z,6.05
2022-10-13T18:56:49.308Z,5.90
2022-10-13T18:59:17.762Z,6.68
2022-10-13T19:04:12.896Z,5.72
2022-10-13T19:06:43.575Z,5.82
2022-10-13T19:09:13.398Z,7.28
2022-10-13T19:11:41.761Z,18.33
2022-10-13T19:14:12.947Z,13.20
2022-10-13T19:16:43.632Z,10.57
2022-10-13T19:19:14.631Z,10.38
2022-10-13T19:21:42.690Z,11.25
2022-10-13T19:24:12.530Z,22.33
2022-10-13T19:26:40.357Z,23.50
2022-10-13T19:29:12.469Z,23.05
2022-10-13T19:31:42.391Z,18.30
2022-10-13T19:34:11.644Z,20.92
2022-10-13T19:36:43.284Z,18.08
2022-10-13T19:39:22.369Z,19.27
2022-10-13T19:41:52.608Z,18.23
2022-10-13T19:44:22.381Z,14.27
2022-10-13T19:46:52.259Z,12.93
2022-10-13T19:49:22.738Z,10.30
2022-10-13T19:51:52.871Z,8.80
2022-10-13T19:54:22.757Z,8.32
2022-10-13T19:56:51.202Z,7.85
2022-10-13T19:59:21.576Z,8.23
2022-10-13T20:01:49.437Z,8.55
2022-10-13T20:04:20.384Z,8.07
2022-10-13T20:06:51.445Z,8.15
2022-10-13T20:09:19.835Z,8.57
2022-10-13T20:11:49.906Z,8.50
2022-10-13T20:14:18.813Z,11.15
2022-10-13T20:16:47.412Z,9.30
2022-10-13T20:19:19.559Z,9.27
2022-10-13T20:21:51.782Z,9.02
2022-10-13T20:24:21.658Z,8.90
2022-10-13T20:26:50.186Z,9.38
2022-10-13T20:29:23.306Z,8.32
2022-10-13T20:31:51.526Z,8.23
2022-10-13T20:34:21.555Z,8.15
2022-10-13T20:36:54.370Z,8.45
2022-10-13T20:39:22.290Z,8.60
2022-10-13T20:41:50.703Z,8.13
2022-10-13T20:44:19.392Z,8.82
2022-10-13T20:46:47.539Z,9.90
2022-10-13T20:49:15.476Z,10.45
2022-10-13T20:51:46.759Z,9.82
2022-10-13T20:54:15.973Z,10.45
2022-10-13T20:56:43.976Z,9.00
2022-10-13T20:59:14.838Z,9.02
2022-10-13T21:01:44.083Z,9.00
2022-10-13T21:04:30.637Z,8.90
2022-10-13T21:06:58.764Z,9.20
2022-10-13T21:09:26.963Z,10.02
2022-10-13T21:11:55.388Z,9.60
2022-10-13T21:14:24.461Z,8.23
2022-10-13T21:16:52.448Z,8.30
2022-10-13T21:19:21.025Z,8.13
2022-10-13T21:21:49.430Z,8.77
2022-10-13T21:24:17.439Z,8.30
2022-10-13T21:26:45.516Z,8.38
2022-10-13T21:29:17.527Z,9.52
2022-10-13T21:31:46.478Z,9.57
2022-10-13T21:34:15.025Z,9.38
2022-10-13T21:36:44.713Z,9.20
2022-10-13T21:39:14.769Z,9.88
2022-10-13T21:41:43.349Z,9.68
2022-10-13T21:44:14.276Z,8.43
2022-10-13T21:46:42.923Z,8.43
2022-10-13T21:49:14.016Z,8.15
2022-10-13T21:51:41.857Z,8.75
2022-10-13T21:54:12.384Z,7.35
2022-10-13T21:56:41.860Z,7.63
2022-10-13T21:59:11.697Z,7.68
2022-10-13T22:01:40.164Z,8.05
2022-10-13T22:04:14.739Z,7.95
2022-10-13T22:06:43.253Z,8.38
2022-10-13T22:09:19.052Z,8.25
2022-10-13T22:11:49.352Z,7.45
2022-10-13T22:14:18.586Z,7.25
2022-10-13T22:16:49.854Z,8.30
2022-10-13T22:21:48.894Z,7.65
2022-10-13T22:24:19.762Z,7.40
2022-10-13T22:26:49.698Z,7.25
2022-10-13T22:29:21.389Z,7.40
2022-10-13T22:31:50.972Z,6.38
2022-10-13T22:34:19.280Z,6.53
2022-10-13T22:36:47.602Z,6.03
2022-10-13T22:39:16.079Z,6.93
2022-10-13T22:41:44.531Z,6.68
2022-10-13T22:44:13.554Z,6.95
2022-10-13T22:46:41.713Z,6.88
2022-10-13T22:49:14.769Z,6.57
2022-10-13T22:51:42.753Z,7.53
2022-10-13T22:54:10.911Z,7.13
2022-10-13T22:56:40.911Z,7.43
2022-10-13T22:59:11.172Z,7.60
2022-10-13T23:01:38.894Z,7.22
2022-10-13T23:04:06.582Z,6.93
2022-10-13T23:06:36.242Z,7.00
2022-10-13T23:09:10.407Z,6.75
2022-10-13T23:11:39.658Z,6.97
2022-10-13T23:14:09.820Z,6.50
2022-10-13T23:16:37.791Z,7.03
2022-10-13T23:19:06.781Z,6.25
2022-10-13T23:21:34.740Z,6.53
2022-10-13T23:24:07.008Z,7.10
2022-10-13T23:26:36.940Z,6.95
2022-10-13T23:29:05.735Z,6.93
2022-10-13T23:31:33.944Z,6.97
2022-10-13T23:34:02.269Z,7.00
2022-10-13T23:36:31.959Z,7.90
2022-10-13T23:39:03.664Z,7.55
2022-10-13T23:41:32.789Z,7.13
2022-10-13T23:44:01.135Z,6.68
2022-10-13T23:46:31.336Z,6.82
2022-10-13T23:48:59.249Z,6.75
2022-10-13T23:51:27.774Z,6.55
2022-10-13T23:53:56.775Z,6.97
2022-10-13T23:56:25.736Z,7.20
2022-10-13T23:58:54.112Z,7.10
